SBOSBO TPA / KTPA
Speedbird OnlineSpeedbird Online TPA / KTPA

Tampa International Airport
15:06 28.9°C

Location Tampa, United States
Latitude: 27.975500106811523
Longitude: -82.533203125
Local Time 15:06 on 20 Apr 2024
UTC -4 hours (America/New_York)
Currency £1 equals USD 1.24
METAR KTPA 201853Z 26009KT 10SM SCT030 28/21 A3005 RMK AO2 SLP176 T02830206
TAF KTPA 201720Z 2018/2124 24007KT P6SM FEW030 FEW250 FM202100 28010KT P6SM FEW060 FEW250 FM210100 VRB03KT P6SM FEW250 FM211400 23010KT P6SM SCT040 SCT250
Weather As Of 20 Apr 2024 15:06
Description Scattered clouds
Wind 17 km/h from West (260°)
Cloud Cover 40%
Precipitation Rain: none, Snow: none
Sunrise 06:59
Sunset 19:57
NOTAM 56 active NOTAM
Rotations During the last 90 days there were
56 flights from LGW
52 flights to LGW
Lounges American Airlines Admirals Club, Main Terminal
Web Wikipedia
Codes IATA: TPA
ICAO: KTPA
Altitude 8 Meter / 26 Feet
Distance 7,123 KM / 4,426 Miles
from London.
Runways
RunwayLength (m)Surface
01L3353Concrete
01R2530Partial
102133Partial
19L2530Partial
19R3353Concrete
282133Partial
Radio
TypeDescriptionFrequency
A/DAPP/DEP118.15
ATISATIS126.45
CLDCLNC DEL133.6
GNDGND121.7
TWRTWR119.5
UNICUNICOM122.95
Live ATC



Support Speedbird Online

© 2017-2024 Speedbird Online